Time;durP1;ratioP1;P1;durP2;ratioP2;P2;SDS_P1;SDS_P2;PMS_P1;PMS_P2;Temp;Humidity;BMP_temperature;BMP_pressure;BME280_temperature;BME280_humidity;BME280_pressure;Samples;Min_cycle;Max_cycle;Signal;HPM_P1;HPM_P2
2022/02/06 00:00:02;;;;;;;7.93;7.23;;;6.70;99.90;;;;;;4974483;28;20216;-66
2022/02/06 00:02:32;;;;;;;7.43;6.87;;;6.60;99.90;;;;;;4988484;28;20212;-66
2022/02/06 00:04:58;;;;;;;8.00;7.40;;;6.50;99.90;;;;;;4994133;28;20670;-65
2022/02/06 00:07:23;;;;;;;7.43;6.93;;;6.50;99.90;;;;;;4980220;28;20321;-65
2022/02/06 00:09:49;;;;;;;7.80;7.27;;;6.40;99.90;;;;;;4974027;28;20568;-66
2022/02/06 00:12:15;;;;;;;7.17;6.50;;;6.40;99.90;;;;;;4985612;28;20195;-65
2022/02/06 00:14:41;;;;;;;7.70;7.10;;;6.30;99.90;;;;;;4993350;28;20201;-65
2022/02/06 00:17:08;;;;;;;8.53;7.63;;;6.30;99.90;;;;;;4983395;28;20185;-65
2022/02/06 00:19:34;;;;;;;7.87;7.17;;;6.30;99.90;;;;;;4973906;28;20213;-65
2022/02/06 00:22:03;;;;;;;7.30;6.90;;;6.30;99.90;;;;;;4982181;28;20191;-65
2022/02/06 00:24:38;;;;;;;7.87;7.17;;;6.30;99.90;;;;;;4993435;28;20176;-65
2022/02/06 00:27:09;;;;;;;9.70;7.93;;;6.30;99.90;;;;;;4984590;28;20223;-65
2022/02/06 00:32:05;;;;;;;7.30;6.60;;;6.40;99.90;;;;;;4993141;28;20717;-65
2022/02/06 00:39:47;;;;;;;7.80;7.27;;;6.50;99.90;;;;;;4978871;28;20207;-65
2022/02/06 00:42:12;;;;;;;7.73;7.13;;;6.60;99.90;;;;;;4992878;28;20185;-66
2022/02/06 00:44:38;;;;;;;7.60;6.90;;;6.60;99.90;;;;;;4989935;28;20193;-66
2022/02/06 00:47:04;;;;;;;10.37;7.97;;;6.70;99.90;;;;;;4993062;28;20205;-66
2022/02/06 00:49:31;;;;;;;8.50;7.53;;;6.80;99.90;;;;;;4987948;28;20609;-66
2022/02/06 00:52:16;;;;;;;9.03;8.43;;;6.90;99.90;;;;;;4973105;28;20659;-65
2022/02/06 00:54:42;;;;;;;8.70;7.83;;;7.00;99.90;;;;;;4977805;28;20614;-65
2022/02/06 00:57:08;;;;;;;8.00;7.40;;;7.10;99.90;;;;;;4992922;28;20181;-66
2022/02/06 00:59:34;;;;;;;8.00;7.40;;;7.10;99.90;;;;;;4973587;28;20205;-66
2022/02/06 01:02:00;;;;;;;7.93;7.23;;;7.20;99.90;;;;;;4972616;28;20178;-66
2022/02/06 01:04:28;;;;;;;7.17;6.77;;;7.30;99.90;;;;;;4989592;28;20181;-66
2022/02/06 01:06:53;;;;;;;7.10;6.67;;;7.30;99.90;;;;;;4992644;28;20260;-66
2022/02/06 01:09:19;;;;;;;8.53;7.60;;;7.40;99.90;;;;;;4977072;28;20264;-66
2022/02/06 01:11:45;;;;;;;9.97;7.27;;;7.40;99.90;;;;;;4973092;28;20177;-66
2022/02/06 01:17:08;;;;;;;7.50;7.10;;;7.40;99.90;;;;;;4985806;28;20213;-66
2022/02/06 01:19:46;;;;;;;9.93;9.17;;;7.50;99.90;;;;;;4972684;28;20296;-66
2022/02/06 01:22:14;;;;;;;8.20;7.70;;;7.50;99.90;;;;;;4980464;28;20617;-66
2022/02/06 01:24:57;;;;;;;12.00;7.67;;;7.50;99.90;;;;;;4992182;28;20223;-66
2022/02/06 01:27:34;;;;;;;7.60;7.00;;;7.50;99.90;;;;;;4977708;28;20613;-66
2022/02/06 01:30:11;;;;;;;8.23;7.57;;;7.50;99.90;;;;;;4972598;28;20247;-66
2022/02/06 01:32:44;;;;;;;7.90;7.27;;;7.60;99.90;;;;;;4986468;28;20184;-65
2022/02/06 01:35:17;;;;;;;9.07;6.63;;;7.60;99.90;;;;;;4991997;28;20197;-66
2022/02/06 01:38:03;;;;;;;7.03;6.43;;;7.60;99.90;;;;;;4978875;28;20189;-65
2022/02/06 01:43:12;;;;;;;7.33;6.90;;;7.70;99.90;;;;;;4972491;28;20580;-66
2022/02/06 02:12:55;;;;;;;8.33;7.73;;;7.90;99.90;;;;;;4994327;28;20263;-66
2022/02/06 02:31:39;;;;;;;7.70;6.90;;;7.60;99.90;;;;;;4995748;28;20508;-66
2022/02/06 02:47:22;;;;;;;8.07;7.37;;;7.90;99.90;;;;;;4993088;28;20169;-65
2022/02/06 02:49:55;;;;;;;7.93;7.17;;;7.90;99.90;;;;;;4975530;28;20252;-66
2022/02/06 02:52:44;;;;;;;7.73;6.90;;;7.80;99.90;;;;;;4990125;28;20192;-66
2022/02/06 02:55:19;;;;;;;6.97;6.47;;;7.80;99.90;;;;;;4993589;28;20714;-66
2022/02/06 02:57:55;;;;;;;7.43;7.07;;;7.80;99.90;;;;;;4977677;28;20185;-66
2022/02/06 03:00:35;;;;;;;8.20;7.10;;;7.70;99.90;;;;;;4975483;28;20205;-66
2022/02/06 03:03:13;;;;;;;8.00;6.87;;;7.80;99.90;;;;;;4994095;28;20172;-66
2022/02/06 03:05:40;;;;;;;7.50;6.70;;;7.80;99.90;;;;;;4994675;28;20188;-65
2022/02/06 03:08:07;;;;;;;7.37;6.63;;;7.80;99.90;;;;;;4975668;28;20185;-65
2022/02/06 03:10:34;;;;;;;7.20;6.80;;;7.70;99.90;;;;;;4975125;28;20185;-66
2022/02/06 03:13:06;;;;;;;7.40;6.90;;;7.70;99.90;;;;;;4992581;28;20189;-65
2022/02/06 03:15:44;;;;;;;7.80;6.87;;;7.70;99.90;;;;;;4994573;28;20197;-65
2022/02/06 03:18:17;;;;;;;8.80;8.20;;;7.60;99.90;;;;;;4975943;28;20193;-65
2022/02/06 03:20:44;;;;;;;8.63;7.73;;;7.50;99.90;;;;;;4988658;28;20216;-65
2022/02/06 03:23:11;;;;;;;7.53;6.93;;;7.40;99.90;;;;;;4993797;28;20710;-65
2022/02/06 03:25:52;;;;;;;8.40;7.37;;;7.40;99.90;;;;;;4980349;28;20197;-65
2022/02/06 03:28:22;;;;;;;9.53;8.60;;;7.40;99.90;;;;;;4975416;28;20232;-65
2022/02/06 03:30:48;;;;;;;8.63;7.83;;;7.30;99.90;;;;;;4987831;28;20239;-65
2022/02/06 03:33:13;;;;;;;8.87;8.00;;;7.30;99.90;;;;;;4993667;28;20173;-66
2022/02/06 03:35:40;;;;;;;9.50;8.40;;;7.20;99.90;;;;;;4980148;28;20726;-66
2022/02/06 03:38:07;;;;;;;10.23;8.40;;;7.20;99.90;;;;;;4974317;28;20200;-65
2022/02/06 03:40:41;;;;;;;8.70;7.80;;;7.20;99.90;;;;;;4985840;28;20216;-66
2022/02/06 03:43:19;;;;;;;8.30;7.47;;;7.20;99.90;;;;;;4994123;28;20595;-65
2022/02/06 03:45:53;;;;;;;8.03;7.30;;;7.10;99.90;;;;;;4981205;28;20201;-66
2022/02/06 03:48:23;;;;;;;9.00;8.37;;;7.10;99.90;;;;;;4974830;28;20273;-66
2022/02/06 03:50:51;;;;;;;9.33;8.67;;;7.00;99.90;;;;;;4986776;28;20179;-66
2022/02/06 03:53:21;;;;;;;8.50;7.70;;;7.00;99.90;;;;;;4993915;28;20226;-66
2022/02/06 03:55:48;;;;;;;7.73;7.23;;;7.00;99.90;;;;;;5014479;23;20228;-67
2022/02/06 03:58:15;;;;;;;8.60;7.87;;;7.00;99.90;;;;;;4994022;28;20638;-66
2022/02/06 04:00:40;;;;;;;10.13;8.33;;;6.90;99.90;;;;;;4993209;28;20610;-67
2022/02/06 04:03:06;;;;;;;8.53;8.07;;;7.00;99.90;;;;;;4987377;28;20181;-67
2022/02/06 04:05:32;;;;;;;9.00;8.30;;;7.00;99.90;;;;;;4973097;28;20217;-66
2022/02/06 04:07:57;;;;;;;8.87;8.07;;;6.90;99.90;;;;;;4974351;28;20713;-66
2022/02/06 04:10:31;;;;;;;8.53;7.97;;;6.90;99.90;;;;;;4974378;28;20551;-67
2022/02/06 04:12:58;;;;;;;8.23;7.63;;;6.90;99.90;;;;;;4976958;28;20182;-67
2022/02/06 04:15:27;;;;;;;9.63;8.93;;;6.90;99.90;;;;;;4993453;28;20633;-67
2022/02/06 04:18:09;;;;;;;8.73;7.93;;;6.90;99.90;;;;;;4992280;28;20181;-67
2022/02/06 04:20:35;;;;;;;8.00;7.40;;;6.90;99.90;;;;;;4993550;28;20200;-66
2022/02/06 04:23:01;;;;;;;10.10;9.30;;;6.90;99.90;;;;;;4990573;28;20247;-66
2022/02/06 04:25:26;;;;;;;8.63;7.93;;;6.90;99.90;;;;;;4974040;28;20659;-66
2022/02/06 04:27:52;;;;;;;8.27;7.43;;;6.90;99.90;;;;;;4974272;28;20174;-67
2022/02/06 04:30:17;;;;;;;10.47;8.37;;;6.90;99.90;;;;;;4974778;28;20643;-66
2022/02/06 04:32:43;;;;;;;11.03;9.03;;;7.00;99.90;;;;;;4973680;28;20182;-66
2022/02/06 04:35:15;;;;;;;8.80;8.20;;;7.00;99.90;;;;;;4990723;28;20216;-66
2022/02/06 04:37:44;;;;;;;8.33;7.63;;;7.00;99.90;;;;;;4993352;28;20260;-66
2022/02/06 04:40:20;;;;;;;7.90;7.30;;;7.00;99.90;;;;;;4973822;28;20721;-65
2022/02/06 04:43:09;;;;;;;8.10;7.60;;;7.00;99.90;;;;;;4989142;28;20210;-67
2022/02/06 05:30:52;;;;;;;7.67;7.20;;;7.00;99.90;;;;;;4983281;28;20200;-65
2022/02/06 05:33:18;;;;;;;8.67;7.77;;;7.10;99.90;;;;;;4992352;28;20632;-66
2022/02/06 05:35:43;;;;;;;9.27;8.60;;;7.10;99.90;;;;;;4982183;28;20208;-66
2022/02/06 05:38:09;;;;;;;8.37;7.70;;;7.10;99.90;;;;;;4972706;28;20675;-67
2022/02/06 05:40:35;;;;;;;9.80;8.80;;;7.10;99.90;;;;;;4980537;28;20564;-66
2022/02/06 05:43:00;;;;;;;8.50;7.70;;;7.10;99.90;;;;;;4992153;28;20185;-66
2022/02/06 05:45:26;;;;;;;8.87;8.20;;;7.10;99.90;;;;;;4985936;28;20203;-66
2022/02/06 05:47:52;;;;;;;8.33;7.93;;;7.20;99.90;;;;;;4970963;28;20173;-67
2022/02/06 05:50:19;;;;;;;9.20;8.40;;;7.10;99.90;;;;;;4976547;28;20283;-66
2022/02/06 05:52:45;;;;;;;7.07;6.60;;;7.20;99.90;;;;;;4991019;28;20814;-65
2022/02/06 05:55:12;;;;;;;6.67;6.37;;;7.20;99.90;;;;;;4972866;28;20205;-66
2022/02/06 05:57:41;;;;;;;8.33;7.70;;;7.20;99.90;;;;;;4972481;28;20185;-67
2022/02/06 06:00:08;;;;;;;8.00;7.47;;;7.20;99.90;;;;;;4991152;28;20209;-67
2022/02/06 06:02:33;;;;;;;7.63;7.13;;;7.20;99.90;;;;;;4991761;28;20172;-66
2022/02/06 06:04:59;;;;;;;7.60;6.90;;;7.20;99.90;;;;;;4974366;28;20200;-67
2022/02/06 06:07:25;;;;;;;7.97;7.47;;;7.20;99.90;;;;;;4972288;28;20323;-67
2022/02/06 06:09:50;;;;;;;7.17;6.67;;;7.20;99.90;;;;;;4987661;28;20203;-67
2022/02/06 06:12:16;;;;;;;8.23;7.63;;;7.20;99.90;;;;;;4992104;28;20185;-66
2022/02/06 06:14:44;;;;;;;8.10;7.70;;;7.20;99.90;;;;;;4977904;28;20178;-67
2022/02/06 06:17:09;;;;;;;7.93;7.23;;;7.10;99.90;;;;;;4972712;28;20173;-66
2022/02/06 06:19:36;;;;;;;8.43;7.67;;;7.10;99.90;;;;;;4984234;28;20267;-67
2022/02/06 06:22:06;;;;;;;7.70;7.10;;;7.10;99.90;;;;;;4982902;28;20165;-68
2022/02/06 06:24:39;;;;;;;8.93;8.43;;;7.00;99.90;;;;;;4972233;28;20173;-67
2022/02/06 06:27:05;;;;;;;7.20;6.83;;;7.00;99.90;;;;;;4979146;28;20227;-68
2022/02/06 06:29:30;;;;;;;7.90;7.50;;;7.00;99.90;;;;;;4991859;28;20185;-66
2022/02/06 06:31:56;;;;;;;8.07;7.27;;;7.00;99.90;;;;;;4984875;28;20188;-67
2022/02/06 06:34:22;;;;;;;7.13;6.57;;;7.00;99.90;;;;;;4972252;28;20201;-67
2022/02/06 06:36:49;;;;;;;7.17;6.60;;;7.00;99.90;;;;;;4976566;28;20279;-67
2022/02/06 06:39:22;;;;;;;8.37;7.97;;;7.00;99.90;;;;;;4991773;28;20534;-66
2022/02/06 06:41:48;;;;;;;9.07;8.67;;;7.00;99.90;;;;;;4989961;28;20173;-68
2022/02/06 06:44:13;;;;;;;7.70;7.20;;;7.10;99.90;;;;;;4991448;28;20170;-67
2022/02/06 06:46:39;;;;;;;7.90;7.30;;;7.10;99.90;;;;;;4985165;28;20198;-64
2022/02/06 06:49:04;;;;;;;7.77;7.27;;;7.10;99.90;;;;;;4972130;28;20264;-65
2022/02/06 06:51:30;;;;;;;7.37;6.70;;;7.20;99.90;;;;;;4989876;28;20189;-67
2022/02/06 06:53:55;;;;;;;16.00;15.20;;;7.20;99.90;;;;;;4991161;28;20177;-67
2022/02/06 06:56:38;;;;;;;7.30;6.80;;;7.20;99.90;;;;;;4973823;28;20307;-67
2022/02/06 06:59:14;;;;;;;8.53;7.60;;;7.20;99.90;;;;;;4973772;28;20193;-68
2022/02/06 07:01:47;;;;;;;7.63;7.17;;;7.20;99.90;;;;;;4993249;28;20684;-66
2022/02/06 07:04:13;;;;;;;8.00;7.40;;;7.30;99.90;;;;;;4994750;28;20223;-67
2022/02/06 07:06:38;;;;;;;11.17;9.90;;;7.30;99.90;;;;;;4977572;28;20594;-67
2022/02/06 07:09:04;;;;;;;8.33;7.73;;;7.30;99.90;;;;;;4975469;28;20173;-68
2022/02/06 07:11:30;;;;;;;8.30;7.80;;;7.40;99.90;;;;;;4990523;28;20177;-67
2022/02/06 07:13:56;;;;;;;8.30;7.60;;;7.40;99.90;;;;;;4994493;28;20188;-67
2022/02/06 07:16:22;;;;;;;7.87;7.30;;;7.40;99.90;;;;;;4981017;28;20197;-68
2022/02/06 07:18:47;;;;;;;7.40;7.00;;;7.50;99.90;;;;;;4975773;28;20188;-68
2022/02/06 07:21:13;;;;;;;23.63;22.43;;;7.50;99.90;;;;;;4975254;28;20196;-67
2022/02/06 07:23:39;;;;;;;8.10;7.60;;;7.50;99.90;;;;;;4974853;28;20185;-67
2022/02/06 07:26:08;;;;;;;9.17;7.60;;;7.60;99.90;;;;;;4975088;28;20714;-67
2022/02/06 07:28:33;;;;;;;7.97;7.50;;;7.60;99.90;;;;;;4990269;28;20182;-68
2022/02/06 07:30:59;;;;;;;8.50;7.70;;;7.50;99.90;;;;;;4994404;28;20177;-67
2022/02/06 07:33:24;;;;;;;7.50;7.10;;;7.50;99.90;;;;;;4980550;28;20209;-67
2022/02/06 07:35:51;;;;;;;10.27;9.57;;;7.50;99.90;;;;;;4974723;28;20795;-67
2022/02/06 07:38:18;;;;;;;7.10;6.67;;;7.50;99.90;;;;;;4976005;28;20174;-68
2022/02/06 07:40:45;;;;;;;7.00;6.50;;;7.50;99.90;;;;;;4974683;28;20197;-66
2022/02/06 07:43:10;;;;;;;6.63;6.23;;;7.50;99.90;;;;;;4989336;28;20681;-67
2022/02/06 07:45:38;;;;;;;6.93;6.33;;;7.50;99.90;;;;;;4994282;28;20275;-68
2022/02/06 07:48:05;;;;;;;8.40;8.00;;;7.50;99.90;;;;;;4989944;28;20173;-67
2022/02/06 07:50:31;;;;;;;9.37;8.87;;;7.50;99.90;;;;;;4994079;28;20176;-67
2022/02/06 07:52:57;;;;;;;7.10;6.70;;;7.40;99.90;;;;;;4977668;28;20178;-67
2022/02/06 07:55:22;;;;;;;8.27;7.83;;;7.50;99.90;;;;;;4974540;28;20217;-68
2022/02/06 07:57:48;;;;;;;6.53;6.03;;;7.40;99.90;;;;;;4975507;28;20185;-68
2022/02/06 08:00:14;;;;;;;6.20;5.90;;;7.40;99.90;;;;;;4974370;28;20237;-67
2022/02/06 08:02:40;;;;;;;8.43;8.03;;;7.40;99.90;;;;;;4986387;28;20169;-67
2022/02/06 08:05:06;;;;;;;7.23;6.80;;;7.40;99.90;;;;;;4993861;28;20666;-67
2022/02/06 08:07:32;;;;;;;6.23;5.93;;;7.40;99.90;;;;;;4982765;28;20181;-68
2022/02/06 08:10:00;;;;;;;6.80;6.20;;;7.40;99.90;;;;;;4974193;28;20203;-67
2022/02/06 08:12:33;;;;;;;6.80;6.50;;;7.40;99.90;;;;;;4983619;28;20177;-68
2022/02/06 08:15:03;;;;;;;9.23;8.83;;;7.40;99.90;;;;;;4987316;28;20205;-67
2022/02/06 08:17:38;;;;;;;8.33;7.93;;;7.50;99.90;;;;;;4975279;28;20184;-68
2022/02/06 08:20:07;;;;;;;7.40;7.10;;;7.50;99.90;;;;;;4981880;28;20240;-70
2022/02/06 08:22:33;;;;;;;7.90;7.20;;;7.50;99.90;;;;;;4975381;28;20181;-67
2022/02/06 08:24:59;;;;;;;8.33;7.80;;;7.50;99.90;;;;;;4993391;28;20212;-65
2022/02/06 08:27:27;;;;;;;6.57;6.27;;;7.50;99.90;;;;;;4992525;28;20307;-65
2022/02/06 08:29:52;;;;;;;6.70;6.40;;;7.60;99.90;;;;;;4973813;28;20189;-66
2022/02/06 08:32:20;;;;;;;7.23;6.83;;;7.60;99.90;;;;;;4972834;28;20181;-66
2022/02/06 08:34:46;;;;;;;6.60;6.20;;;7.60;99.90;;;;;;4973856;28;20190;-66
2022/02/06 08:37:12;;;;;;;15.20;10.50;;;7.60;99.90;;;;;;4973909;28;20173;-66
2022/02/06 08:39:39;;;;;;;6.90;6.50;;;7.60;99.90;;;;;;4990895;28;20247;-66
2022/02/06 08:42:08;;;;;;;7.83;7.33;;;7.70;99.90;;;;;;4981519;28;20192;-70
2022/02/06 08:44:35;;;;;;;9.37;8.77;;;7.60;99.90;;;;;;4972797;28;20539;-67
2022/02/06 08:47:01;;;;;;;6.87;6.57;;;7.70;99.90;;;;;;4983918;28;20189;-66
2022/02/06 08:49:27;;;;;;;7.10;6.60;;;7.70;99.90;;;;;;4993551;28;20187;-69
2022/02/06 08:51:52;;;;;;;6.63;6.33;;;7.70;99.90;;;;;;4984482;28;20651;-67
2022/02/06 08:54:24;;;;;;;6.70;6.40;;;7.70;99.90;;;;;;4973576;28;20546;-68
2022/02/06 08:56:50;;;;;;;7.67;7.27;;;7.70;99.90;;;;;;4980816;28;20215;-67
2022/02/06 08:59:15;;;;;;;6.67;6.27;;;7.70;99.90;;;;;;4994096;28;20192;-68
2022/02/06 09:01:41;;;;;;;7.33;6.73;;;7.80;99.90;;;;;;4988808;28;20232;-66
2022/02/06 09:04:06;;;;;;;7.73;7.43;;;7.80;99.90;;;;;;4974857;28;20662;-67
2022/02/06 09:06:35;;;;;;;6.87;6.37;;;7.80;99.90;;;;;;4976864;28;20193;-67
2022/02/06 09:09:00;;;;;;;6.57;6.27;;;7.80;99.90;;;;;;4993773;28;20204;-66
2022/02/06 09:11:29;;;;;;;6.13;5.83;;;7.80;99.90;;;;;;4974001;28;20177;-67
2022/02/06 09:13:55;;;;;;;7.20;6.80;;;7.80;99.90;;;;;;4973434;28;20176;-68
2022/02/06 09:16:23;;;;;;;8.50;8.20;;;7.80;99.90;;;;;;4991808;28;20204;-67
2022/02/06 09:18:50;;;;;;;7.67;7.27;;;7.80;99.90;;;;;;4993673;28;20219;-67
2022/02/06 09:21:16;;;;;;;6.20;6.00;;;7.80;99.90;;;;;;4974745;28;20181;-67
2022/02/06 09:23:42;;;;;;;6.97;6.67;;;7.70;99.90;;;;;;4973580;28;20169;-67
2022/02/06 09:26:08;;;;;;;11.47;10.97;;;7.70;99.90;;;;;;4975554;28;20197;-66
2022/02/06 09:28:34;;;;;;;6.47;6.17;;;7.70;99.90;;;;;;4972948;28;20169;-67
2022/02/06 09:30:59;;;;;;;6.63;6.33;;;7.60;99.90;;;;;;4987954;28;20181;-67
2022/02/06 09:35:51;;;;;;;8.83;8.43;;;7.70;99.90;;;;;;4979238;28;20207;-68
2022/02/06 09:38:17;;;;;;;7.00;6.70;;;7.60;99.90;;;;;;4983104;28;20618;-66
2022/02/06 09:40:45;;;;;;;14.37;13.73;;;7.60;99.90;;;;;;4981827;28;20205;-67
2022/02/06 09:43:13;;;;;;;7.10;6.80;;;7.60;99.90;;;;;;4973232;28;20205;-67
2022/02/06 09:45:41;;;;;;;6.40;6.20;;;7.60;99.90;;;;;;4982620;28;20205;-67
2022/02/06 09:48:11;;;;;;;6.93;6.53;;;7.60;99.90;;;;;;4992442;28;20185;-67
2022/02/06 09:50:37;;;;;;;7.33;6.93;;;7.60;99.90;;;;;;4984077;28;20193;-68
2022/02/06 09:53:03;;;;;;;7.10;6.80;;;7.60;99.90;;;;;;4973372;28;20193;-68
2022/02/06 09:55:29;;;;;;;7.00;6.70;;;7.60;99.90;;;;;;4980212;28;20220;-68
2022/02/06 09:58:45;;;;;;;6.60;6.30;;;7.60;99.90;;;;;;4992458;28;20177;-68
2022/02/06 10:00:45;;;;;;;7.27;6.93;;;7.60;99.90;;;;;;4982467;28;20205;-68
2022/02/06 10:03:13;;;;;;;6.50;6.10;;;7.60;99.90;;;;;;4976945;28;20312;-68
2022/02/06 10:05:42;;;;;;;6.50;6.20;;;7.60;99.90;;;;;;4981948;28;20543;-68
2022/02/06 10:08:31;;;;;;;6.27;5.90;;;7.60;99.90;;;;;;4976017;28;20264;-67
2022/02/06 10:11:06;;;;;;;7.43;6.83;;;7.60;99.90;;;;;;4992062;28;20180;-68
2022/02/06 10:13:36;;;;;;;12.90;6.50;;;7.50;99.90;;;;;;4985872;28;20646;-68
2022/02/06 10:16:02;;;;;;;6.30;6.00;;;7.50;99.90;;;;;;4971563;28;20205;-68
2022/02/06 10:18:28;;;;;;;7.00;6.70;;;7.50;99.90;;;;;;4977701;28;20276;-67
2022/02/06 10:20:54;;;;;;;6.77;6.47;;;7.40;99.90;;;;;;4992221;28;20204;-69
2022/02/06 10:23:53;;;;;;;7.90;7.50;;;7.40;99.90;;;;;;4987097;28;20590;-67
2022/02/06 10:26:23;;;;;;;8.27;7.97;;;7.30;99.90;;;;;;4972569;28;20239;-66
2022/02/06 10:29:09;;;;;;;7.20;6.80;;;7.30;99.90;;;;;;4979044;28;20231;-67
2022/02/06 10:31:36;;;;;;;7.03;6.73;;;7.30;99.90;;;;;;4986685;28;20580;-69
2022/02/06 10:34:02;;;;;;;17.20;16.40;;;7.30;99.90;;;;;;4975700;28;20208;-66
2022/02/06 10:36:36;;;;;;;6.80;6.50;;;7.20;99.90;;;;;;4979398;28;20228;-68
2022/02/06 10:39:06;;;;;;;6.67;6.37;;;7.20;99.90;;;;;;4995698;28;20597;-68
2022/02/06 10:41:34;;;;;;;6.20;6.00;;;7.20;99.90;;;;;;4982364;28;20188;-66
2022/02/06 10:44:09;;;;;;;7.47;7.17;;;7.20;99.90;;;;;;4977162;28;20260;-68
2022/02/06 10:46:47;;;;;;;7.33;6.90;;;7.20;99.90;;;;;;4990260;28;20231;-68
2022/02/06 10:49:16;;;;;;;7.53;7.23;;;7.20;99.90;;;;;;4995620;28;20184;-68
2022/02/06 10:51:51;;;;;;;10.57;10.17;;;7.20;99.90;;;;;;4981183;28;20190;-68
2022/02/06 10:54:29;;;;;;;7.93;7.33;;;7.20;99.90;;;;;;4974478;28;20188;-64
2022/02/06 10:57:03;;;;;;;6.67;6.37;;;7.20;99.90;;;;;;4982136;28;20224;-68
2022/02/06 10:59:45;;;;;;;7.33;6.93;;;7.20;99.90;;;;;;4994560;28;20204;-69
2022/02/06 11:02:33;;;;;;;6.37;6.17;;;7.20;99.90;;;;;;4995000;28;20173;-67
2022/02/06 11:05:15;;;;;;;6.37;6.17;;;7.20;99.90;;;;;;4989224;28;20288;-67
2022/02/06 11:07:54;;;;;;;6.70;6.40;;;7.20;99.90;;;;;;4975718;28;20264;-66
2022/02/06 11:10:22;;;;;;;8.00;7.40;;;7.20;99.90;;;;;;4982795;28;20231;-68
2022/02/06 11:12:56;;;;;;;6.67;6.37;;;7.20;99.90;;;;;;4994947;28;20177;-68
2022/02/06 11:15:37;;;;;;;6.73;6.33;;;7.20;99.90;;;;;;4987663;28;20292;-68
2022/02/06 11:18:08;;;;;;;7.40;7.00;;;7.20;99.90;;;;;;4975861;28;20177;-68
2022/02/06 11:20:35;;;;;;;11.17;10.03;;;7.20;99.90;;;;;;4983033;28;20255;-68
2022/02/06 11:23:04;;;;;;;9.50;8.70;;;7.10;99.90;;;;;;4994433;28;20187;-68
2022/02/06 11:25:32;;;;;;;9.50;8.90;;;7.10;99.90;;;;;;4987271;28;20285;-68
2022/02/06 11:27:59;;;;;;;9.27;8.57;;;7.10;99.90;;;;;;4977907;28;20184;-68
2022/02/06 11:30:24;;;;;;;8.23;7.83;;;7.10;99.90;;;;;;4978051;28;20272;-68
2022/02/06 11:32:50;;;;;;;7.33;6.97;;;7.10;99.90;;;;;;4975988;28;20717;-68
2022/02/06 11:35:21;;;;;;;7.63;7.13;;;7.10;99.90;;;;;;4994525;28;20193;-68
2022/02/06 11:44:17;;;;;;;8.00;7.70;;;7.10;99.90;;;;;;4977648;28;20620;-68
2022/02/06 11:46:57;;;;;;;6.77;6.47;;;7.10;99.90;;;;;;4980642;28;20748;-68
2022/02/06 11:49:23;;;;;;;6.80;6.50;;;7.10;99.90;;;;;;4982094;28;20270;-69
2022/02/06 11:51:53;;;;;;;7.03;6.73;;;7.10;99.90;;;;;;4985291;28;20180;-68
2022/02/06 11:54:33;;;;;;;8.93;8.53;;;7.20;99.90;;;;;;4975697;28;20281;-68
2022/02/06 11:57:24;;;;;;;6.80;6.50;;;7.20;99.90;;;;;;4973493;28;20295;-70
2022/02/06 12:00:06;;;;;;;10.97;10.47;;;7.20;99.90;;;;;;4990355;28;20204;-68
2022/02/06 12:02:36;;;;;;;11.80;11.27;;;7.20;99.90;;;;;;4992804;28;20736;-68
2022/02/06 12:05:19;;;;;;;6.47;6.17;;;7.20;99.90;;;;;;4975516;28;20216;-69
2022/02/06 12:07:53;;;;;;;7.57;7.27;;;7.20;99.90;;;;;;4974363;28;20177;-67
2022/02/06 12:10:34;;;;;;;10.40;9.93;;;7.30;99.90;;;;;;4974362;28;20593;-67
2022/02/06 12:15:58;;;;;;;6.00;5.80;;;7.30;99.90;;;;;;4974276;28;20204;-68
2022/02/06 12:18:34;;;;;;;6.93;6.63;;;7.40;99.90;;;;;;4974233;28;20177;-69
2022/02/06 12:21:16;;;;;;;6.43;6.17;;;7.40;99.90;;;;;;4974942;28;20667;-69
2022/02/06 12:23:49;;;;;;;6.37;6.13;;;7.40;99.90;;;;;;4993300;28;20184;-69
2022/02/06 12:26:31;;;;;;;19.87;18.93;;;7.50;99.90;;;;;;4990939;28;20180;-67
2022/02/06 12:29:13;;;;;;;7.00;6.70;;;7.60;99.90;;;;;;4973896;28;20181;-69
2022/02/06 12:31:54;;;;;;;9.97;9.50;;;7.60;99.90;;;;;;4979129;28;20176;-69
2022/02/06 12:37:31;;;;;;;9.33;8.93;;;7.70;99.90;;;;;;4982693;28;20277;-68
2022/02/06 12:39:59;;;;;;;38.40;35.77;;;7.80;99.90;;;;;;4978019;28;20249;-69
2022/02/06 12:42:31;;;;;;;9.87;9.47;;;7.90;99.90;;;;;;4992849;28;20260;-67
2022/02/06 12:44:58;;;;;;;7.20;6.90;;;7.90;99.90;;;;;;4988874;28;20189;-68
2022/02/06 12:47:26;;;;;;;6.67;6.37;;;8.00;99.90;;;;;;4974156;28;20465;-68
2022/02/06 12:49:52;;;;;;;8.50;8.10;;;8.10;99.90;;;;;;4976111;28;20212;-68
2022/02/06 12:52:18;;;;;;;6.93;6.43;;;8.10;99.90;;;;;;4992948;28;20204;-69
2022/02/06 12:54:44;;;;;;;6.90;6.60;;;8.20;99.90;;;;;;4991315;28;20184;-68
2022/02/06 12:57:10;;;;;;;7.27;6.87;;;8.20;99.90;;;;;;4972638;28;20467;-69
2022/02/06 12:59:38;;;;;;;6.27;5.97;;;8.30;99.90;;;;;;4973295;28;20237;-69
2022/02/06 13:02:07;;;;;;;7.13;6.73;;;8.30;99.90;;;;;;4991602;28;20638;-69
2022/02/06 13:04:40;;;;;;;7.77;7.33;;;8.40;99.90;;;;;;4992885;28;20244;-69
2022/02/06 13:07:06;;;;;;;7.57;7.17;;;8.50;99.90;;;;;;4973785;28;20170;-68
2022/02/06 13:09:41;;;;;;;7.60;7.10;;;8.60;99.90;;;;;;4973436;28;20265;-69
2022/02/06 13:12:25;;;;;;;14.07;13.47;;;8.60;99.90;;;;;;4990665;28;20880;-69
2022/02/06 13:31:22;;;;;;;7.87;7.27;;;8.20;99.90;;;;;;4992638;28;20670;-69
2022/02/06 13:34:11;;;;;;;9.83;9.33;;;8.00;99.90;;;;;;4986075;28;20192;-69
2022/02/06 13:36:43;;;;;;;7.00;6.70;;;7.80;99.90;;;;;;4971906;28;20324;-69
2022/02/06 13:39:18;;;;;;;7.00;6.60;;;7.50;99.90;;;;;;4981264;28;20172;-69
2022/02/06 13:41:44;;;;;;;7.33;6.93;;;7.30;99.90;;;;;;4992814;28;20641;-69
2022/02/06 13:44:18;;;;;;;7.33;6.93;;;7.20;99.90;;;;;;4983668;28;20215;-69
2022/02/06 13:46:46;;;;;;;7.63;7.33;;;7.00;99.90;;;;;;4977056;28;20188;-67
2022/02/06 13:49:12;;;;;;;8.27;7.87;;;6.80;99.90;;;;;;4992871;28;20168;-68
2022/02/06 13:51:46;;;;;;;7.77;7.47;;;6.60;99.90;;;;;;4990339;28;20193;-67
2022/02/06 13:54:12;;;;;;;7.70;7.40;;;6.50;99.90;;;;;;4973631;28;20491;-68
2022/02/06 13:56:38;;;;;;;8.07;7.47;;;6.50;99.90;;;;;;4975439;28;20206;-67
2022/02/06 13:59:22;;;;;;;6.97;6.67;;;6.40;99.90;;;;;;4993370;28;20678;-68
2022/02/06 14:01:51;;;;;;;6.23;6.03;;;6.40;99.90;;;;;;4989577;28;20178;-69
2022/02/06 14:04:22;;;;;;;6.90;6.43;;;6.30;99.90;;;;;;4973372;28;20166;-67
2022/02/06 14:07:00;;;;;;;6.07;5.87;;;6.30;99.90;;;;;;4974069;28;20208;-68
2022/02/06 14:09:30;;;;;;;6.50;6.20;;;6.30;99.90;;;;;;4996518;28;20231;-68
2022/02/06 14:11:58;;;;;;;6.90;6.60;;;6.30;99.90;;;;;;4993499;28;20216;-67
2022/02/06 14:14:24;;;;;;;8.07;7.43;;;6.30;99.90;;;;;;4977744;28;20177;-67
2022/02/06 14:16:54;;;;;;;7.30;6.90;;;6.40;99.90;;;;;;4978321;28;20204;-67
2022/02/06 14:19:40;;;;;;;6.83;6.53;;;6.40;99.90;;;;;;4994707;28;20259;-67
2022/02/06 14:22:06;;;;;;;7.17;6.87;;;6.40;99.90;;;;;;4990785;28;20183;-67
2022/02/06 14:24:56;;;;;;;7.23;6.93;;;6.50;99.90;;;;;;4987142;28;20271;-68
2022/02/06 14:27:40;;;;;;;7.13;6.83;;;6.50;99.90;;;;;;4989463;28;20193;-67
2022/02/06 14:30:22;;;;;;;6.87;6.57;;;6.50;99.90;;;;;;4975434;28;20311;-68
2022/02/06 14:33:23;;;;;;;7.47;6.73;;;6.50;99.90;;;;;;4976910;28;20428;-68
2022/02/06 14:35:56;;;;;;;7.23;6.83;;;6.50;99.90;;;;;;4973819;28;20216;-68
2022/02/06 14:38:44;;;;;;;7.53;7.03;;;6.50;99.90;;;;;;4988298;28;20204;-68
2022/02/06 14:41:34;;;;;;;7.40;7.10;;;6.50;99.90;;;;;;4982477;28;20263;-68
2022/02/06 14:44:04;;;;;;;7.17;6.87;;;6.50;99.90;;;;;;4975794;28;20180;-67
2022/02/06 14:46:31;;;;;;;7.50;7.10;;;6.50;99.90;;;;;;4990805;28;20573;-68
2022/02/06 14:48:58;;;;;;;8.00;7.60;;;6.50;99.90;;;;;;4995582;28;20538;-67
2022/02/06 14:51:26;;;;;;;8.20;7.80;;;6.50;99.90;;;;;;4981309;28;20662;-67
2022/02/06 14:53:59;;;;;;;7.80;7.40;;;6.60;99.90;;;;;;4975432;28;20261;-66
2022/02/06 14:56:35;;;;;;;7.33;6.93;;;6.50;99.90;;;;;;4987589;28;20217;-66
2022/02/06 14:59:02;;;;;;;7.37;7.07;;;6.50;99.90;;;;;;4995268;28;20177;-65
2022/02/06 15:01:28;;;;;;;7.40;7.10;;;6.50;99.90;;;;;;4981668;28;20549;-67
2022/02/06 15:03:54;;;;;;;7.30;6.90;;;6.50;99.90;;;;;;4975262;28;20178;-68
2022/02/06 15:06:20;;;;;;;8.30;7.80;;;6.50;99.90;;;;;;4987093;28;20308;-68
2022/02/06 15:08:45;;;;;;;10.00;9.10;;;6.60;99.90;;;;;;4991530;28;20216;-67
2022/02/06 15:11:11;;;;;;;7.87;7.47;;;6.60;99.90;;;;;;4993651;28;20180;-67
2022/02/06 15:13:37;;;;;;;7.77;7.17;;;6.60;99.90;;;;;;4992652;28;20260;-67
2022/02/06 15:16:08;;;;;;;8.10;7.50;;;6.60;99.90;;;;;;4994788;28;20203;-67
2022/02/06 15:18:37;;;;;;;7.60;7.27;;;6.50;99.90;;;;;;4992148;28;20181;-68
2022/02/06 15:21:04;;;;;;;8.00;7.60;;;6.60;99.90;;;;;;4994252;28;20201;-68
2022/02/06 15:23:30;;;;;;;7.73;7.33;;;6.60;99.90;;;;;;4992791;28;20538;-67
2022/02/06 15:25:56;;;;;;;8.40;7.90;;;6.60;99.90;;;;;;4994372;28;20189;-67
2022/02/06 15:28:23;;;;;;;7.33;6.93;;;6.60;99.90;;;;;;4992337;28;20189;-67
2022/02/06 15:30:49;;;;;;;6.80;6.50;;;6.50;99.90;;;;;;4982656;28;20185;-68
2022/02/06 15:33:14;;;;;;;7.30;6.83;;;6.50;99.90;;;;;;4974935;28;20232;-68
2022/02/06 15:35:42;;;;;;;8.40;8.00;;;6.50;99.90;;;;;;4974732;28;20842;-67